Sagehen Creek Weather observations

Data are for observation ending at time listed.
 Day   Time    Ave.   Ave.  Ave.  Vector   Max.   Stn.    Total    Solar   Ave.  
  of    of     Air    Rel.  Wind   Wind    Wind   Baro.  Precip.   Rad.    Soil  
Year   Day     Temp.  Hum.  Speed  Dir.    Gust   Pres.                    Temp. 
2015   (PST)    F      %     mph   deg.    mph     mb.     in.     W/m2     F   
------------------------------------------------------------------------------
 117   11:40   56.1    31    4.7    95     13.7   838.8   13.11     957    999.0
 117   11:50   55.8    30    6.0    96     10.9   838.9   13.11     956    999.0
 117   12:00   56.6    31    4.1    92     10.6   838.9   13.11     955    999.0
 117   12:10   57.4    31    3.7   103      8.9   838.8   13.11     958    999.0
 117   12:20   58.1    29    4.4    90     11.0   838.8   13.11     958    999.0
 117   12:30   57.5    29    4.1   108     11.2   838.9   13.11     954    999.0
 117   12:40   57.1    30    6.3    90     15.1   838.7   13.11     950    999.0
 117   12:50   58.1    29    3.8    84      8.8   838.7   13.11     940    999.0
 117   13:00   58.3    28    4.7   101      9.5   838.7   13.11     934    999.0
 117   13:10   58.5    28    4.8    82     11.2   838.7   13.11     928    999.0
 117   13:20   58.6    28    3.8    93     10.7   838.8   13.11     916    999.0
 117   13:30   59.0    27    6.0    94     11.7   838.8   13.10     906    999.0
 117   13:40   58.8    27    5.2   101     13.8   838.7   13.10     893    999.0
 117   13:50   59.8    27    3.0    78     10.3   838.6   13.10     873    999.0
 117   14:00   60.0    27    4.7    93     12.5   838.5   13.10     863    999.0
 117   14:10   60.5    26    2.8    94      9.2   838.2   13.10     842    999.0
 117   14:20   60.5    26    4.1    88     10.2   838.2   13.10     826    999.0
 117   14:30   60.8    27    4.0    91     10.5   838.2   13.10     803    999.0
 117   14:40   60.5    26    4.4    97     11.0   838.0   13.10     783    999.0
 117   14:50   60.8    25    3.7    86      9.3   838.1   13.10     761    999.0
 117   15:00   60.9    25    2.5    61      9.5   838.2   13.10     736    999.0
 117   15:10   61.1    25    3.0    79      8.2   838.2   13.10     710    999.0
 117   15:20   60.6    25    3.4    87      7.6   838.2   13.10     680    999.0
 117   15:30   60.6    25    4.0    92      8.5   838.2   13.10     650    999.0
 117   15:40   61.1    24    2.4    84      8.0   838.1   13.10     619    999.0
 117   15:50   61.0    24    2.3    93      6.1   838.0   13.10     578    999.0
 117   16:00   60.6    25    3.4   103      8.4   837.9   13.10     557    999.0
 117   16:10   56.2    19    3.9    87      5.7     0.0   13.10     514    999.0
 117   16:20   60.7    24    2.9    99      6.5   432.9   13.10     490    999.0
 117   16:30   61.0    24    2.4    99      6.6   837.8   13.11     445    999.0
 117   16:40   60.7    24    2.4    80      8.2   837.8   13.11     422    999.0
 117   16:50   61.8    24    1.0    58      3.2   837.9   13.11     382    999.0
 117   17:00   61.3    25    2.1    88      5.5   837.9   13.11     354    999.0
 117   17:10   57.2    24    1.6    83      3.6     0.0   13.11     308    999.0
 117   17:20   60.1    26    1.7    86      6.5   432.9   13.11     283    999.0
 117   17:30   58.4    29    0.9    83      3.3   837.9   13.11     104    999.0
 117   17:40   56.5    30    1.5    62      5.2   837.4   13.11      26    999.0
 117   17:50   55.2    35    0.2   319      1.1   837.4   13.11      21    999.0
 117   18:00   53.9    38    0.6    42      3.1   837.4   13.11      19    999.0
 117   18:10   52.6    44    0.6   310      1.4   837.4   13.12      16    999.0
 117   18:20   51.1    49    0.7   281      1.6   837.5   13.12      12    999.0
 117   18:30   49.4    55    1.0   272      2.5   837.6   13.12       9    999.0
 117   18:40   47.8    56    1.4   280      2.6   837.8   13.12       7    999.0
 117   18:50   46.6    60    1.1   251      2.0   837.8   13.12       4    999.0
 117   19:00   45.3    66    0.9   243      2.1   837.8   13.12       1    999.0
 117   19:10   44.1    67    1.1   250      1.9   837.7   13.12       0    999.0
 117   19:20   43.1    70    0.8   255      1.6   837.9   13.12       0    999.0
 117   19:30   41.8    72    0.4   260      1.4   838.0   13.12       0    999.0
 117   19:40   40.9    73    0.6   236      0.9   838.2   13.12       0    999.0
 117   19:50   39.9    75    0.6   237      1.0   838.3   13.12       0    999.0
 117   20:00   39.1    76    0.5   232      1.1   838.3   13.12       0    999.0
 117   20:10   38.3    76    0.6   240      1.0   838.1   13.12       0    999.0
 117   20:20   37.5    77    0.4   234      0.9   838.3   13.12       0    999.0
 117   20:30   36.8    78    0.5   243      1.1   838.6   13.12       0    999.0
 117   20:40   36.0    79    0.5   234      1.1   838.7   13.12       0    999.0
 117   20:50   35.4    79    0.6   251      1.3   838.5   13.12       0    999.0
 117   21:00   34.7    80    0.3   244      1.0   838.3   13.12       0    999.0
 117   21:10   34.2    81    0.2   214      1.0   838.8   13.12       0    999.0
 117   21:20   33.6    80    0.7   251      1.5   838.8   13.12       0    999.0
 117   21:30   33.1    82    0.1   238      0.5   838.8   13.12       0    999.0
 117   21:40   32.5    82    0.3   236      1.0   838.5   13.12       0    999.0
 117   21:50   32.2    84    0.3   248      0.6   838.6   13.12       0    999.0
 117   22:00   31.7    84    0.2   216      1.0   838.7   13.12       0    999.0
 117   22:10   31.3    85    0.1   224      0.6   838.4   13.12       0    999.0
 117   22:20   30.8    85    0.5   263      1.4   838.5   13.12       0    999.0
 117   22:30   30.5    86    0.4   241      1.0   838.5   13.12       0    999.0
 117   22:40   30.2    87    0.5   250      1.0   838.7   13.12       0    999.0
 117   22:50   29.9    88    0.2   251      0.8   838.6   13.12       0    999.0
 117   23:00   29.7    88    0.2   251      0.9   838.4   13.12       0    999.0
 117   23:10   29.3    88    0.3   252      0.7   838.4   13.12       0    999.0
 117   23:20   29.0    89    0.5   252      1.0   838.6   13.12       0    999.0
 117   23:30   28.8    89    0.4   255      1.0   838.8   13.12       0    999.0
 117   23:40   28.6    90    0.5   252      1.1   838.4   13.12       0    999.0
 117   23:50   28.4    90    0.3   243      0.9   838.5   13.12       0    999.0
 118    0:00   28.2    90    0.5   257      1.0   838.5   13.12       0    999.0
 118    0:10   27.9    90    0.4   262      1.1   838.7   13.12       0    999.0
 118    0:20   27.7    90    0.4   249      1.0   838.5   13.12       0    999.0
 118    0:30   27.5    91    0.5   256      0.9   838.3   13.12       0    999.0
 118    0:40   27.4    91    0.4   261      1.1   838.3   13.12       0    999.0
 118    0:50   27.3    91    0.2   238      0.6   838.4   13.12       0    999.0
 118    1:00   27.0    91    0.6   270      0.8    93.2   13.12       0    999.0
 118    1:10   27.0    91    0.3   266      0.9   838.4   13.12       0    999.0
 118    1:20   27.0    91    0.4   257      0.9   838.3   13.12       0    999.0
 118    1:30   26.9    92    0.4   226      1.0   838.1   13.12       0    999.0
 118    1:40   26.9    92    0.4   248      0.9   838.1   13.12       0    999.0
 118    1:50   26.9    92    0.3   266      0.9   838.2   13.12       0    999.0
 118    2:00   26.8    90    0.4   218      1.2    14.4   13.12       0    999.0
 118    2:10   26.6    92    0.2   272      0.8   838.1   13.12       0    999.0
 118    2:20   26.7    92    0.4   262      0.9   838.2   13.12       0    999.0
 118    2:30   26.6    92    0.3   217      1.5   838.2   13.12       0    999.0
 118    2:40   26.6    92    0.2   266      1.0   838.2   13.12       0    999.0
 118    2:50   26.5    92    0.4   265      1.0   838.1   13.12       0    999.0
 118    3:00   26.4    92    0.2   265      0.6   838.0   13.12       0    999.0
 118    3:10   26.2    92    0.1   280      0.6   838.2   13.12       0    999.0
 118    3:20   26.1    92    0.2   275      0.7   838.0   13.12       0    999.0
 118    3:30   26.1    92    0.3   272      1.0   837.7   13.12       0    999.0
 118    3:40   25.9    92    0.0   264      0.6   838.2   13.12       0    999.0
 118    3:50   25.8    92    0.4   267      1.1   838.1   13.12       0    999.0
 118    4:00   25.7    92    0.0   269      0.3   838.1   13.12       0    999.0
 118    4:10   25.6    93    0.2   269      0.7   837.8   13.12       0    999.0
 118    4:20   25.6    93    0.0   267      0.5   837.9   13.12       0    999.0
 118    4:30   25.4    93    0.4   271      0.8   838.0   13.12       0    999.0
 118    4:40   25.4    93    0.1   266      0.8   837.8   13.12       0    999.0
 118    4:50   25.4    93    0.1   278      0.7   837.7   13.12       0    999.0
 118    5:00   25.3    93    0.0   281      0.5   837.6   13.12       1    999.0
 118    5:10   25.3    93    0.1   292      0.7   837.8   13.12       2    999.0
 118    5:20   25.2    93    0.2   272      0.8   837.8   13.12       4    999.0
 118    5:30   25.2    93    0.4   273      1.2   837.8   13.12       7    999.0
 118    5:40   25.2    93    0.0   248      0.7   837.6   13.12      14    999.0
 118    5:50   25.4    93    0.2   285      0.6   837.9   13.13      52    999.0
 118    6:00   26.5    93    0.0   289      0.5   838.1   13.13     121    999.0
 118    6:10   28.1    91    0.0     0      0.0   837.7   13.13     162    999.0
 118    6:20   29.4    87    0.0     0      0.0   837.8   13.13     199    999.0
 118    6:30   30.5    84    0.0     0      0.0   838.0   13.13     233    999.0
 118    6:40   32.2    82    0.0     0      0.0   837.9   13.13     261    999.0
 118    6:50   33.8    81    0.0   284      0.4   837.8   13.13     294    999.0
 118    7:00   36.8    77    0.0    66      0.5   837.7   13.13     329    999.0
 118    7:10   40.2    71    0.0    48      0.5   837.8   13.13     358    999.0
 118    7:20   42.1    68    0.5   130      2.0   837.9   13.13     376    999.0
 118    7:30   43.0    65    0.9   105      3.6   837.9   13.13     428    999.0
 118    7:40   45.3    62    0.9   100      2.9   837.9   13.12     460    999.0
 118    7:50   47.0    56    1.8    97      4.0   837.9   13.12     490    999.0
 118    8:00   48.7    51    1.8    97      4.1   837.9   13.12     521    999.0
 118    8:10   49.8    50    3.2   100      6.2   837.5   13.12     556    999.0
 118    8:20   51.1    48    3.5    89      5.9   837.6   13.12     586    999.0
 118    8:30   32.0     0    0.0     0      0.0   837.4   -2.85     630    999.0
 118    8:40   53.2    42    2.9    85      5.1   837.4   13.12     644    999.0
 118    8:50   57.1    43    2.1    58      3.6   837.5   13.12     675    999.0
 118    9:00   59.6    40    2.5   224      9.0   837.7   13.12     704    999.0
 118    9:10   60.3    37    1.6   267      3.9   837.5   13.12     732    999.0
 118    9:20   61.3    37    1.5   204      5.5   837.6   13.12     757    999.0
 118    9:30   62.2    35    2.8   168      6.0   837.6   13.12     780    999.0
 118    9:40   62.5    34    2.5   216      7.1   837.6   13.12     800    999.0
 118    9:50   63.5    33    2.4   180      6.7   837.7   13.12     822    999.0
 118   10:00   63.9    32    2.6   259      6.2   837.7   13.12     840    999.0
 118   10:10   64.5    32    2.7   230      7.9   837.4   13.11     858    999.0
 118   10:20   64.3    31    2.6   246      7.4   837.5   13.11     873    999.0
 118   10:30   64.0    31    2.7   176      6.8   837.7   13.11     888    999.0
 118   10:40   64.1    30    2.5   287      4.4   837.3   13.11     902    999.0
 118   10:50   65.0    29    2.7   283      7.0   837.6   13.11     915    999.0
 118   11:00   65.3    29    2.8   276      7.8   837.8   13.11     926    999.0
 118   11:10   65.2    29    2.9   256      6.5   837.5   13.11     901    999.0
 118   11:20   65.0    30    2.8   299      5.2   837.6   13.11     943    999.0
 118   11:30   65.5    30    2.2   274      6.5   837.7   13.11     952    999.0

Return to Sagehen Creek graphs page.


Western Regional Climate Center,wrcc@dri.edu